Time;durP1;ratioP1;P1;durP2;ratioP2;P2;SDS_P1;SDS_P2;PMS_P1;PMS_P2;Temp;Humidity;BMP_temperature;BMP_pressure;BME280_temperature;BME280_humidity;BME280_pressure;Samples;Min_cycle;Max_cycle;Signal;HPM_P1;HPM_P2
2022/07/03 00:02:09;;;;;;;2.13;2.00;;;;;;;;;;5016398;28;20619;-66
2022/07/03 00:04:36;;;;;;;2.57;1.90;;;;;;;;;;5011533;28;20234;-64
2022/07/03 00:07:04;;;;;;;2.40;2.20;;;;;;;;;;5024473;28;20215;-64
2022/07/03 00:09:31;;;;;;;2.13;1.93;;;;;;;;;;5028464;28;20223;-65
2022/07/03 00:11:59;;;;;;;2.20;2.10;;;;;;;;;;5038926;28;20210;-64
2022/07/03 00:14:26;;;;;;;2.60;1.73;;;;;;;;;;5019209;28;20226;-65
2022/07/03 00:16:54;;;;;;;2.03;1.93;;;;;;;;;;5019209;28;20259;-64
2022/07/03 00:19:21;;;;;;;2.20;2.00;;;;;;;;;;5018593;28;20206;-65
2022/07/03 00:22:03;;;;;;;1.97;1.87;;;;;;;;;;5019223;28;20586;-64
2022/07/03 00:24:51;;;;;;;2.17;1.93;;;;;;;;;;5014189;28;20234;-67
2022/07/03 00:27:19;;;;;;;2.03;1.92;;;;;;;;;;5017633;28;20206;-66
2022/07/03 00:29:48;;;;;;;2.30;2.20;;;;;;;;;;5035848;28;20714;-66
2022/07/03 00:32:26;;;;;;;2.33;1.97;;;;;;;;;;5012750;28;20212;-65
2022/07/03 00:34:55;;;;;;;2.08;1.95;;;;;;;;;;5006401;28;20225;-68
2022/07/03 00:37:23;;;;;;;2.30;2.10;;;;;;;;;;5008152;28;20225;-67
2022/07/03 00:39:51;;;;;;;3.27;1.90;;;;;;;;;;5029684;28;20212;-65
2022/07/03 00:42:18;;;;;;;2.00;1.80;;;;;;;;;;5030996;28;20561;-65
2022/07/03 00:44:48;;;;;;;2.07;1.90;;;;;;;;;;5024626;28;20255;-65
2022/07/03 00:47:17;;;;;;;2.00;1.90;;;;;;;;;;5015121;28;20730;-66
2022/07/03 00:49:46;;;;;;;3.07;1.77;;;;;;;;;;5000312;28;20230;-66
2022/07/03 00:52:15;;;;;;;2.47;1.80;;;;;;;;;;5029951;28;20533;-65
2022/07/03 00:54:44;;;;;;;1.77;1.67;;;;;;;;;;5014927;28;20238;-65
2022/07/03 00:57:16;;;;;;;2.20;2.10;;;;;;;;;;5022166;28;20252;-65
2022/07/03 00:59:43;;;;;;;1.80;1.70;;;;;;;;;;5011270;28;20868;-65
2022/07/03 01:02:30;;;;;;;2.50;1.97;;;;;;;;;;5013999;28;20685;-67
2022/07/03 01:04:57;;;;;;;1.97;1.87;;;;;;;;;;5039010;28;20235;-65
2022/07/03 01:07:24;;;;;;;2.00;1.90;;;;;;;;;;5020049;28;20209;-67
2022/07/03 01:10:04;;;;;;;3.93;1.70;;;;;;;;;;5024354;28;20647;-65
2022/07/03 01:12:32;;;;;;;4.13;1.97;;;;;;;;;;5013996;28;23593;-67
2022/07/03 01:15:07;;;;;;;2.77;2.10;;;;;;;;;;5040893;28;20689;-65
2022/07/03 01:17:39;;;;;;;2.10;1.90;;;;;;;;;;5036245;28;20205;-66
2022/07/03 01:20:07;;;;;;;2.50;2.30;;;;;;;;;;5036778;28;20202;-65
2022/07/03 01:22:42;;;;;;;3.83;2.00;;;;;;;;;;5010208;28;20210;-63
2022/07/03 01:25:14;;;;;;;2.10;1.90;;;;;;;;;;5031446;28;20588;-65
2022/07/03 01:28:05;;;;;;;3.50;2.10;;;;;;;;;;5016288;28;20215;-65
2022/07/03 01:30:34;;;;;;;2.30;2.10;;;;;;;;;;5011528;28;20636;-65
2022/07/03 01:33:03;;;;;;;1.80;1.70;;;;;;;;;;5029013;28;20221;-64
2022/07/03 01:35:36;;;;;;;2.93;2.03;;;;;;;;;;5015393;28;20237;-64
2022/07/03 01:38:13;;;;;;;2.20;2.00;;;;;;;;;;5004920;28;20202;-64
2022/07/03 01:40:42;;;;;;;2.23;2.00;;;;;;;;;;5008887;28;20213;-64
2022/07/03 01:43:12;;;;;;;2.53;1.90;;;;;;;;;;5015226;28;20711;-64
2022/07/03 01:45:43;;;;;;;2.33;2.20;;;;;;;;;;5013044;28;20242;-64
2022/07/03 01:48:12;;;;;;;2.30;2.20;;;;;;;;;;5017739;28;20750;-65
2022/07/03 01:50:39;;;;;;;4.43;2.30;;;;;;;;;;5018658;28;20233;-65
2022/07/03 01:53:08;;;;;;;2.10;1.90;;;;;;;;;;5016128;28;20209;-64
2022/07/03 01:55:38;;;;;;;2.10;1.83;;;;;;;;;;5010656;28;20222;-65
2022/07/03 01:58:05;;;;;;;1.90;1.80;;;;;;;;;;5010778;28;20259;-65
2022/07/03 02:00:40;;;;;;;1.73;1.63;;;;;;;;;;5015724;28;20593;-65
2022/07/03 02:03:07;;;;;;;2.33;1.90;;;;;;;;;;5036540;28;20236;-65
2022/07/03 02:05:38;;;;;;;2.67;2.07;;;;;;;;;;5020955;28;20322;-65
2022/07/03 02:08:25;;;;;;;2.40;2.20;;;;;;;;;;5014660;28;20264;-65
2022/07/03 02:11:01;;;;;;;1.80;1.70;;;;;;;;;;5020062;28;20274;-64
2022/07/03 02:13:29;;;;;;;2.37;2.17;;;;;;;;;;5032841;28;20211;-65
2022/07/03 02:15:58;;;;;;;1.73;1.63;;;;;;;;;;5020597;28;20629;-64
2022/07/03 02:18:27;;;;;;;3.87;1.80;;;;;;;;;;5033992;28;20202;-64
2022/07/03 02:21:04;;;;;;;2.30;2.17;;;;;;;;;;5022314;28;20203;-64
2022/07/03 02:23:36;;;;;;;1.97;1.87;;;;;;;;;;5011516;28;20210;-64
2022/07/03 02:26:10;;;;;;;2.17;1.97;;;;;;;;;;5028813;28;20230;-63
2022/07/03 02:28:40;;;;;;;2.20;2.00;;;;;;;;;;5014642;28;20210;-63
2022/07/03 02:31:09;;;;;;;2.17;2.07;;;;;;;;;;5022139;28;20232;-65
2022/07/03 02:33:38;;;;;;;1.90;1.80;;;;;;;;;;5018842;28;20207;-65
2022/07/03 02:36:10;;;;;;;2.00;1.90;;;;;;;;;;5022898;28;20214;-65
2022/07/03 02:38:44;;;;;;;2.17;1.97;;;;;;;;;;5012907;28;20292;-65
2022/07/03 02:41:18;;;;;;;2.20;2.00;;;;;;;;;;5014193;28;20206;-65
2022/07/03 02:43:55;;;;;;;3.53;2.00;;;;;;;;;;5021572;28;20280;-65
2022/07/03 02:46:49;;;;;;;2.40;2.23;;;;;;;;;;5014984;28;20252;-65
2022/07/03 02:49:19;;;;;;;2.07;1.77;;;;;;;;;;5014727;28;20286;-64
2022/07/03 02:51:58;;;;;;;1.97;1.80;;;;;;;;;;5005861;28;20210;-64
2022/07/03 02:54:25;;;;;;;2.23;1.80;;;;;;;;;;5009122;28;20226;-65
2022/07/03 02:57:09;;;;;;;2.00;1.90;;;;;;;;;;5018051;28;20681;-66
2022/07/03 02:59:45;;;;;;;2.10;2.00;;;;;;;;;;5035431;28;20209;-63
2022/07/03 03:02:15;;;;;;;2.60;2.10;;;;;;;;;;5017482;28;20241;-65
2022/07/03 03:04:45;;;;;;;2.17;1.90;;;;;;;;;;5037720;28;20287;-63
2022/07/03 03:07:17;;;;;;;3.00;1.73;;;;;;;;;;5012984;28;20206;-63
2022/07/03 03:09:45;;;;;;;2.73;2.03;;;;;;;;;;5014380;28;20594;-65
2022/07/03 03:12:14;;;;;;;2.47;1.90;;;;;;;;;;5012348;28;20214;-65
2022/07/03 03:14:42;;;;;;;1.73;1.67;;;;;;;;;;5012218;28;20225;-64
2022/07/03 03:17:20;;;;;;;2.03;1.93;;;;;;;;;;5021819;28;21956;-64
2022/07/03 03:19:51;;;;;;;1.80;1.70;;;;;;;;;;5019772;28;20206;-65
2022/07/03 03:22:25;;;;;;;2.40;2.20;;;;;;;;;;5019649;28;20195;-65
2022/07/03 03:24:53;;;;;;;1.80;1.70;;;;;;;;;;5017695;28;20234;-64
2022/07/03 03:27:21;;;;;;;3.47;1.97;;;;;;;;;;5019741;28;20249;-64
2022/07/03 03:29:49;;;;;;;1.97;1.87;;;;;;;;;;5015038;28;20233;-64
2022/07/03 03:32:18;;;;;;;2.00;1.80;;;;;;;;;;5030982;28;20345;-65
2022/07/03 03:34:46;;;;;;;2.13;1.90;;;;;;;;;;5021913;28;20230;-65
2022/07/03 03:37:13;;;;;;;1.93;1.80;;;;;;;;;;5021264;28;20220;-63
2022/07/03 03:39:41;;;;;;;2.00;1.80;;;;;;;;;;5017082;28;20216;-65
2022/07/03 03:42:09;;;;;;;1.97;1.87;;;;;;;;;;5026634;28;20209;-65
2022/07/03 03:44:36;;;;;;;1.90;1.80;;;;;;;;;;5016375;28;20222;-64
2022/07/03 03:47:04;;;;;;;2.80;1.93;;;;;;;;;;5019492;28;20210;-65
2022/07/03 03:49:31;;;;;;;2.27;1.80;;;;;;;;;;5042551;28;20264;-64
2022/07/03 03:51:59;;;;;;;1.97;1.70;;;;;;;;;;5019123;28;20218;-65
2022/07/03 03:54:26;;;;;;;2.47;1.73;;;;;;;;;;5025578;28;20537;-64
2022/07/03 03:56:55;;;;;;;3.33;2.00;;;;;;;;;;5028039;28;20256;-65
2022/07/03 03:59:22;;;;;;;2.00;1.90;;;;;;;;;;5016244;28;20574;-65
2022/07/03 04:01:49;;;;;;;1.80;1.70;;;;;;;;;;5011354;28;20210;-64
2022/07/03 04:04:18;;;;;;;2.20;2.00;;;;;;;;;;5008120;28;20230;-64
2022/07/03 04:06:46;;;;;;;5.60;1.80;;;;;;;;;;5015029;28;20260;-65
2022/07/03 04:09:13;;;;;;;2.20;2.00;;;;;;;;;;5017422;28;20210;-64
2022/07/03 04:11:41;;;;;;;1.87;1.77;;;;;;;;;;5011951;28;20715;-65
2022/07/03 04:14:08;;;;;;;1.90;1.80;;;;;;;;;;5037833;28;20268;-65
2022/07/03 04:16:36;;;;;;;2.30;2.10;;;;;;;;;;5032175;28;20680;-65
2022/07/03 04:19:03;;;;;;;2.43;1.70;;;;;;;;;;5015401;28;20728;-65
2022/07/03 04:21:31;;;;;;;2.57;2.10;;;;;;;;;;5027528;28;20202;-64
2022/07/03 04:23:59;;;;;;;2.63;1.90;;;;;;;;;;5014270;28;20210;-65
2022/07/03 04:26:26;;;;;;;3.17;1.83;;;;;;;;;;5020517;28;20213;-65
2022/07/03 04:28:53;;;;;;;2.00;1.90;;;;;;;;;;5026945;28;20202;-65
2022/07/03 04:31:21;;;;;;;2.10;2.00;;;;;;;;;;5034327;28;20242;-64
2022/07/03 04:33:49;;;;;;;1.80;1.70;;;;;;;;;;5030761;28;20210;-64
2022/07/03 04:36:17;;;;;;;1.70;1.60;;;;;;;;;;5017486;28;20644;-65
2022/07/03 04:38:44;;;;;;;2.80;2.00;;;;;;;;;;5023507;28;20210;-64
2022/07/03 04:41:12;;;;;;;2.03;1.83;;;;;;;;;;5003204;28;20904;-65
2022/07/03 04:43:39;;;;;;;4.23;1.90;;;;;;;;;;5011620;28;20202;-64
2022/07/03 04:46:06;;;;;;;2.00;1.90;;;;;;;;;;5026563;28;20218;-65
2022/07/03 04:48:37;;;;;;;2.67;1.87;;;;;;;;;;5017921;28;20304;-64
2022/07/03 04:51:05;;;;;;;2.97;2.10;;;;;;;;;;5012415;28;20760;-64
2022/07/03 04:53:32;;;;;;;2.63;1.60;;;;;;;;;;5032108;28;20575;-64
2022/07/03 04:56:00;;;;;;;2.20;1.90;;;;;;;;;;5021043;28;20658;-64
2022/07/03 04:58:27;;;;;;;3.00;2.00;;;;;;;;;;5018592;28;20203;-65
2022/07/03 05:00:54;;;;;;;2.00;1.90;;;;;;;;;;5032648;28;20297;-65
2022/07/03 05:03:22;;;;;;;2.00;1.77;;;;;;;;;;5007920;28;20279;-65
2022/07/03 05:05:49;;;;;;;1.93;1.70;;;;;;;;;;5014061;28;20234;-67
2022/07/03 05:08:19;;;;;;;2.60;2.00;;;;;;;;;;5024976;28;20202;-65
2022/07/03 05:10:47;;;;;;;2.03;1.93;;;;;;;;;;5017793;28;20214;-64
2022/07/03 05:13:14;;;;;;;2.00;1.70;;;;;;;;;;5011402;28;20953;-65
2022/07/03 05:15:42;;;;;;;2.00;1.90;;;;;;;;;;5016196;28;20230;-66
2022/07/03 05:18:09;;;;;;;2.95;1.70;;;;;;;;;;5016491;28;20202;-64
2022/07/03 05:20:37;;;;;;;1.70;1.60;;;;;;;;;;5014170;28;20315;-63
2022/07/03 05:23:04;;;;;;;1.60;1.50;;;;;;;;;;5008568;28;20198;-64
2022/07/03 05:25:32;;;;;;;2.13;1.92;;;;;;;;;;5011647;28;20226;-65
2022/07/03 05:28:02;;;;;;;1.70;1.60;;;;;;;;;;5030788;28;20268;-64
2022/07/03 05:30:29;;;;;;;1.45;1.38;;;;;;;;;;5003326;28;20241;-63
2022/07/03 05:32:57;;;;;;;1.27;1.20;;;;;;;;;;5014454;28;21105;-64
2022/07/03 05:35:24;;;;;;;1.25;1.20;;;;;;;;;;5015320;28;20234;-64
2022/07/03 05:37:52;;;;;;;1.13;1.10;;;;;;;;;;5011658;28;20053;-65
2022/07/03 05:40:19;;;;;;;0.88;0.88;;;;;;;;;;5015096;28;20217;-65
2022/07/03 05:42:47;;;;;;;;;;;;;;;;;;5015541;28;20459;-64
2022/07/03 05:45:14;;;;;;;;;;;;;;;;;;5016838;28;19929;-64
2022/07/03 05:47:41;;;;;;;;;;;;;;;;;;5016326;28;19924;-66
2022/07/03 05:50:09;;;;;;;0.90;0.90;;;;;;;;;;5019939;28;19931;-65
2022/07/03 05:52:37;;;;;;;0.88;0.88;;;;;;;;;;5011695;28;20217;-64
2022/07/03 05:55:05;;;;;;;2.53;0.85;;;;;;;;;;5031810;28;20591;-65
2022/07/03 05:57:32;;;;;;;0.80;0.80;;;;;;;;;;5017890;28;20305;-65
2022/07/03 06:00:01;;;;;;;2.38;0.82;;;;;;;;;;5012659;28;20221;-65
2022/07/03 06:02:28;;;;;;;0.80;0.80;;;;;;;;;;5019100;28;20201;-64
2022/07/03 06:04:55;;;;;;;1.83;0.68;;;;;;;;;;5013073;28;20230;-65
2022/07/03 06:07:23;;;;;;;0.85;0.77;;;;;;;;;;5015701;28;20699;-64
2022/07/03 06:09:50;;;;;;;1.17;0.90;;;;;;;;;;5010069;28;20808;-65
2022/07/03 06:12:18;;;;;;;1.63;0.63;;;;;;;;;;5016096;28;20222;-66
2022/07/03 06:14:45;;;;;;;1.02;0.70;;;;;;;;;;5015040;28;20229;-65
2022/07/03 06:17:13;;;;;;;0.70;0.70;;;;;;;;;;5022335;28;20214;-65
2022/07/03 06:19:40;;;;;;;1.95;0.80;;;;;;;;;;5026961;28;20236;-64
2022/07/03 06:22:08;;;;;;;0.73;0.73;;;;;;;;;;5009957;28;20050;-64
2022/07/03 06:24:45;;;;;;;0.75;0.60;;;;;;;;;;5019011;28;20253;-64
2022/07/03 06:27:12;;;;;;;3.20;0.90;;;;;;;;;;5011975;28;20596;-64
2022/07/03 06:29:40;;;;;;;1.42;0.90;;;;;;;;;;5039782;28;20218;-65
2022/07/03 06:32:08;;;;;;;1.13;1.02;;;;;;;;;;5016246;28;20226;-64
2022/07/03 06:34:35;;;;;;;0.70;0.70;;;;;;;;;;5029940;28;20226;-64
2022/07/03 06:37:03;;;;;;;1.20;1.10;;;;;;;;;;5013190;28;20295;-65
2022/07/03 06:39:30;;;;;;;0.80;0.80;;;;;;;;;;5017062;28;20202;-65
2022/07/03 06:41:58;;;;;;;1.95;1.15;;;;;;;;;;5019003;28;20233;-65
2022/07/03 06:44:25;;;;;;;1.05;0.98;;;;;;;;;;5025659;28;20233;-65
2022/07/03 06:46:53;;;;;;;1.75;0.80;;;;;;;;;;5018871;28;20305;-65
2022/07/03 06:49:20;;;;;;;0.90;0.90;;;;;;;;;;5011816;28;20271;-64
2022/07/03 06:51:47;;;;;;;1.38;1.02;;;;;;;;;;5005497;28;20235;-64
2022/07/03 06:54:15;;;;;;;1.00;1.00;;;;;;;;;;5017392;28;20219;-64
2022/07/03 06:56:42;;;;;;;1.00;1.00;;;;;;;;;;5019141;28;20206;-64
2022/07/03 06:59:10;;;;;;;0.90;0.90;;;;;;;;;;5016629;28;20291;-65
2022/07/03 07:01:37;;;;;;;1.00;1.00;;;;;;;;;;5009475;28;20668;-65
2022/07/03 07:04:05;;;;;;;0.90;0.90;;;;;;;;;;5009155;28;20242;-64
2022/07/03 07:06:35;;;;;;;1.20;1.10;;;;;;;;;;5008199;28;21734;-64
2022/07/03 07:09:04;;;;;;;1.15;1.00;;;;;;;;;;5021101;28;20613;-65
2022/07/03 07:11:31;;;;;;;0.98;0.88;;;;;;;;;;5024490;28;20222;-64
2022/07/03 07:13:58;;;;;;;0.80;0.80;;;;;;;;;;5034345;28;20205;-65
2022/07/03 07:16:26;;;;;;;0.93;0.93;;;;;;;;;;5011617;28;20597;-65
2022/07/03 07:18:54;;;;;;;1.10;1.00;;;;;;;;;;5021981;28;20207;-65
2022/07/03 07:21:21;;;;;;;0.90;0.90;;;;;;;;;;5019683;28;20218;-64
2022/07/03 07:23:48;;;;;;;0.70;0.70;;;;;;;;;;5015661;28;20741;-65
2022/07/03 07:26:18;;;;;;;0.60;0.60;;;;;;;;;;5018983;28;20312;-65
2022/07/03 07:28:46;;;;;;;0.75;0.75;;;;;;;;;;5024192;28;20217;-64
2022/07/03 07:31:13;;;;;;;1.00;0.90;;;;;;;;;;5017016;28;20629;-64
2022/07/03 07:33:41;;;;;;;0.93;0.80;;;;;;;;;;5011493;28;20293;-64
2022/07/03 07:36:08;;;;;;;0.77;0.77;;;;;;;;;;5018378;28;20244;-64
2022/07/03 07:38:35;;;;;;;0.80;0.80;;;;;;;;;;5013174;28;20290;-64
2022/07/03 07:41:03;;;;;;;0.80;0.80;;;;;;;;;;5025916;28;20217;-65
2022/07/03 07:43:30;;;;;;;0.70;0.70;;;;;;;;;;5004904;28;20218;-64
2022/07/03 07:45:58;;;;;;;2.05;0.80;;;;;;;;;;5045733;28;20238;-64
2022/07/03 07:48:26;;;;;;;0.88;0.80;;;;;;;;;;5025843;28;20233;-64
2022/07/03 07:50:54;;;;;;;0.80;0.80;;;;;;;;;;5031248;28;20230;-65
2022/07/03 07:53:21;;;;;;;1.08;0.70;;;;;;;;;;5043074;28;20255;-64
2022/07/03 07:55:48;;;;;;;1.10;0.88;;;;;;;;;;5022541;28;20233;-64
2022/07/03 07:58:16;;;;;;;0.98;0.90;;;;;;;;;;5013566;28;20199;-64
2022/07/03 08:06:27;;;;;;;0.85;0.80;;;;;;;;;;5028063;28;20225;-64
2022/07/03 08:08:55;;;;;;;0.80;0.80;;;;;;;;;;5036953;28;20213;-63
2022/07/03 08:11:22;;;;;;;3.05;1.80;;;;;;;;;;5023592;28;20214;-63
2022/07/03 08:13:50;;;;;;;1.92;0.80;;;;;;;;;;5001574;28;20194;-64
2022/07/03 08:16:17;;;;;;;0.70;0.70;;;;;;;;;;5004016;28;20199;-64
2022/07/03 08:18:45;;;;;;;1.20;0.60;;;;;;;;;;4999579;28;20293;-67
2022/07/03 08:21:12;;;;;;;0.80;0.80;;;;;;;;;;5003503;28;20202;-64
2022/07/03 08:23:41;;;;;;;0.50;0.50;;;;;;;;;;5019863;28;20305;-64
2022/07/03 08:26:08;;;;;;;2.58;0.55;;;;;;;;;;5028897;28;20226;-64
2022/07/03 08:28:36;;;;;;;2.13;1.00;;;;;;;;;;5015968;28;20226;-65
2022/07/03 08:31:03;;;;;;;1.40;0.80;;;;;;;;;;5020048;28;20233;-64
2022/07/03 08:33:31;;;;;;;1.45;0.65;;;;;;;;;;5010378;28;20217;-65
2022/07/03 08:36:05;;;;;;;0.77;0.70;;;;;;;;;;5011455;28;20226;-65
2022/07/03 08:38:33;;;;;;;0.70;0.70;;;;;;;;;;5030332;28;20268;-65
2022/07/03 08:41:01;;;;;;;0.60;0.60;;;;;;;;;;5026231;28;20221;-63
2022/07/03 08:43:29;;;;;;;0.70;0.70;;;;;;;;;;5025764;28;20780;-65
2022/07/03 08:45:57;;;;;;;0.80;0.70;;;;;;;;;;5017239;28;20299;-65
2022/07/03 08:48:25;;;;;;;0.70;0.70;;;;;;;;;;5017218;28;21625;-65
2022/07/03 08:50:53;;;;;;;0.60;0.60;;;;;;;;;;5015538;28;20234;-66
2022/07/03 08:53:20;;;;;;;0.52;0.52;;;;;;;;;;5007873;28;20547;-65
2022/07/03 08:55:48;;;;;;;0.70;0.70;;;;;;;;;;5009017;28;20234;-65
2022/07/03 08:58:18;;;;;;;0.70;0.70;;;;;;;;;;5012466;28;20218;-65
2022/07/03 09:00:46;;;;;;;0.52;0.52;;;;;;;;;;5030671;28;20241;-66
2022/07/03 09:03:15;;;;;;;0.73;0.73;;;;;;;;;;5009676;28;20298;-66
2022/07/03 09:05:42;;;;;;;1.85;0.70;;;;;;;;;;5015864;28;20281;-64
2022/07/03 09:08:10;;;;;;;1.75;0.70;;;;;;;;;;5012855;28;20233;-65
2022/07/03 09:10:38;;;;;;;0.43;0.40;;;;;;;;;;5026373;28;20208;-66
2022/07/03 09:13:06;;;;;;;0.88;0.60;;;;;;;;;;5015320;28;20241;-65
2022/07/03 09:15:34;;;;;;;0.60;0.60;;;;;;;;;;5000894;28;20229;-63
2022/07/03 09:18:06;;;;;;;1.00;0.90;;;;;;;;;;5004042;28;20676;-65
2022/07/03 09:20:33;;;;;;;0.95;0.85;;;;;;;;;;5016331;28;20202;-63
2022/07/03 09:23:14;;;;;;;2.50;0.60;;;;;;;;;;5006440;28;20206;-64
2022/07/03 09:25:51;;;;;;;2.35;2.15;;;;;;;;;;5006865;28;20237;-64
2022/07/03 09:28:20;;;;;;;0.70;0.70;;;;;;;;;;5003823;28;20214;-64
2022/07/03 09:31:01;;;;;;;0.77;0.77;;;;;;;;;;5017521;28;20210;-64
2022/07/03 09:33:28;;;;;;;0.93;0.70;;;;;;;;;;5019970;28;22786;-64
2022/07/03 09:35:56;;;;;;;1.55;0.70;;;;;;;;;;5015578;28;20268;-65
2022/07/03 09:38:24;;;;;;;0.73;0.73;;;;;;;;;;5004110;28;20560;-64
2022/07/03 09:40:52;;;;;;;1.30;0.60;;;;;;;;;;5004906;28;20210;-65
2022/07/03 09:43:26;;;;;;;0.75;0.73;;;;;;;;;;4998239;28;20203;-65
2022/07/03 09:45:54;;;;;;;0.52;0.52;;;;;;;;;;5017672;28;20240;-65
2022/07/03 09:48:25;;;;;;;0.60;0.60;;;;;;;;;;5014072;28;20207;-65
2022/07/03 09:51:12;;;;;;;1.33;0.70;;;;;;;;;;5025952;28;20214;-64
2022/07/03 09:53:46;;;;;;;0.70;0.70;;;;;;;;;;5004032;28;20205;-65
2022/07/03 09:56:20;;;;;;;0.52;0.52;;;;;;;;;;5006588;28;20208;-64
2022/07/03 09:59:00;;;;;;;0.77;0.77;;;;;;;;;;5005125;28;20206;-64
2022/07/03 10:01:28;;;;;;;0.65;0.60;;;;;;;;;;5003541;28;20284;-66
2022/07/03 10:04:08;;;;;;;1.95;0.60;;;;;;;;;;4997464;28;20229;-63
2022/07/03 10:06:46;;;;;;;1.17;0.60;;;;;;;;;;5005497;28;20209;-67
2022/07/03 10:09:15;;;;;;;0.57;0.55;;;;;;;;;;5035529;28;20563;-66
2022/07/03 10:11:44;;;;;;;0.57;0.57;;;;;;;;;;5023592;28;20663;-66
2022/07/03 10:14:14;;;;;;;0.95;0.80;;;;;;;;;;5006196;28;20226;-63
2022/07/03 10:16:42;;;;;;;1.27;0.60;;;;;;;;;;5008555;28;20291;-64
2022/07/03 10:19:13;;;;;;;0.75;0.60;;;;;;;;;;5004941;28;20202;-64
2022/07/03 10:21:41;;;;;;;0.47;0.47;;;;;;;;;;5002741;28;20210;-63
2022/07/03 10:24:10;;;;;;;0.60;0.60;;;;;;;;;;5005270;28;20210;-65
2022/07/03 10:26:40;;;;;;;0.50;0.50;;;;;;;;;;5002106;28;20486;-65
2022/07/03 10:29:10;;;;;;;2.25;0.65;;;;;;;;;;5003095;28;20203;-64
2022/07/03 10:31:40;;;;;;;0.75;0.75;;;;;;;;;;5006269;28;21035;-64
2022/07/03 10:34:11;;;;;;;0.55;0.50;;;;;;;;;;5004934;28;20225;-65
2022/07/03 10:36:39;;;;;;;0.60;0.60;;;;;;;;;;5000524;28;20407;-64
2022/07/03 10:39:07;;;;;;;0.45;0.45;;;;;;;;;;4997309;28;20202;-64
2022/07/03 10:47:39;;;;;;;2.60;0.70;;;;;;;;;;5024229;28;20858;-64
2022/07/03 10:50:13;;;;;;;1.15;0.50;;;;;;;;;;5014802;28;20210;-64
2022/07/03 10:52:41;;;;;;;1.20;0.40;;;;;;;;;;5008451;28;20280;-64
2022/07/03 10:55:09;;;;;;;1.75;0.68;;;;;;;;;;5007582;28;20232;-64
2022/07/03 10:57:37;;;;;;;0.88;0.70;;;;;;;;;;5010126;28;21185;-63
2022/07/03 11:00:07;;;;;;;0.55;0.50;;;;;;;;;;5006298;28;20210;-67
2022/07/03 11:02:42;;;;;;;0.70;0.60;;;;;;;;;;5015950;28;20220;-65
2022/07/03 11:05:10;;;;;;;0.98;0.63;;;;;;;;;;5007548;28;21588;-64
2022/07/03 11:07:52;;;;;;;0.73;0.60;;;;;;;;;;5001348;28;20220;-64
2022/07/03 11:10:19;;;;;;;2.05;0.65;;;;;;;;;;5027499;28;20199;-65
2022/07/03 11:13:05;;;;;;;0.65;0.52;;;;;;;;;;5006269;28;20226;-65
2022/07/03 11:15:33;;;;;;;1.92;0.70;;;;;;;;;;5012804;28;20230;-65
2022/07/03 11:18:07;;;;;;;1.02;0.70;;;;;;;;;;5026465;28;20202;-64
2022/07/03 11:20:55;;;;;;;1.52;0.70;;;;;;;;;;5028413;28;20212;-64
2022/07/03 11:23:31;;;;;;;1.95;0.63;;;;;;;;;;4995885;28;20202;-64
2022/07/03 11:26:00;;;;;;;0.68;0.68;;;;;;;;;;5021240;28;20683;-64
2022/07/03 11:28:33;;;;;;;0.70;0.55;;;;;;;;;;5022183;28;20734;-66
2022/07/03 11:31:13;;;;;;;1.17;0.73;;;;;;;;;;5014638;28;20240;-65
2022/07/03 11:33:44;;;;;;;1.20;0.70;;;;;;;;;;5004222;28;20219;-66
2022/07/03 11:36:17;;;;;;;0.63;0.60;;;;;;;;;;5009773;28;20293;-67
2022/07/03 11:38:45;;;;;;;1.75;0.77;;;;;;;;;;5006369;28;20207;-67
2022/07/03 11:41:13;;;;;;;0.70;0.70;;;;;;;;;;5035004;28;20280;-64
2022/07/03 11:43:53;;;;;;;0.60;0.60;;;;;;;;;;5003815;28;20317;-65
2022/07/03 11:46:22;;;;;;;1.38;1.00;;;;;;;;;;5012326;28;20202;-64
2022/07/03 11:48:49;;;;;;;0.75;0.75;;;;;;;;;;5010903;28;20217;-64
2022/07/03 11:51:17;;;;;;;1.98;0.90;;;;;;;;;;5016908;28;20256;-65
2022/07/03 11:53:45;;;;;;;0.60;0.60;;;;;;;;;;5028318;28;20320;-65
2022/07/03 11:56:14;;;;;;;0.85;0.63;;;;;;;;;;5016391;28;20219;-64
2022/07/03 11:58:50;;;;;;;1.77;0.70;;;;;;;;;;5018843;28;20878;-64
2022/07/03 12:01:26;;;;;;;1.33;0.88;;;;;;;;;;5011931;28;20201;-65
2022/07/03 12:04:03;;;;;;;1.02;0.65;;;;;;;;;;5007870;28;21205;-64
2022/07/03 12:06:40;;;;;;;2.03;0.63;;;;;;;;;;5012120;28;20206;-64
2022/07/03 12:09:15;;;;;;;2.45;0.75;;;;;;;;;;5008040;28;20210;-64
2022/07/03 12:11:53;;;;;;;1.00;0.65;;;;;;;;;;5009918;28;20296;-65
2022/07/03 12:14:39;;;;;;;0.80;0.80;;;;;;;;;;5010460;28;20221;-64
2022/07/03 12:17:28;;;;;;;0.88;0.70;;;;;;;;;;5011654;28;20198;-65
2022/07/03 12:19:56;;;;;;;3.00;0.85;;;;;;;;;;5010921;28;20214;-65
2022/07/03 12:22:28;;;;;;;2.63;1.60;;;;;;;;;;5001283;28;20221;-64
2022/07/03 12:25:06;;;;;;;0.70;0.70;;;;;;;;;;5014008;28;20316;-65
2022/07/03 12:27:35;;;;;;;1.50;1.40;;;;;;;;;;5001635;28;20699;-64
2022/07/03 12:30:03;;;;;;;2.65;0.95;;;;;;;;;;5034456;28;20211;-66
2022/07/03 12:32:31;;;;;;;2.40;1.30;;;;;;;;;;5033483;28;20222;-65
2022/07/03 12:34:58;;;;;;;0.85;0.80;;;;;;;;;;5020421;28;20230;-65
2022/07/03 12:37:33;;;;;;;1.20;1.10;;;;;;;;;;5020339;28;20214;-65
2022/07/03 12:40:00;;;;;;;1.00;0.60;;;;;;;;;;5020364;28;20198;-64
2022/07/03 12:42:28;;;;;;;1.23;0.68;;;;;;;;;;5021332;28;20659;-63
2022/07/03 12:45:02;;;;;;;0.77;0.60;;;;;;;;;;5019216;28;20292;-65
2022/07/03 12:47:30;;;;;;;1.15;1.00;;;;;;;;;;5015197;28;21277;-65
2022/07/03 12:50:02;;;;;;;0.70;0.50;;;;;;;;;;5008964;28;20195;-65
2022/07/03 12:52:30;;;;;;;0.70;0.70;;;;;;;;;;5007542;28;20230;-65
2022/07/03 12:55:00;;;;;;;1.35;0.60;;;;;;;;;;5023721;28;20264;-65
2022/07/03 13:00:19;;;;;;;1.02;0.90;;;;;;;;;;5024506;28;20570;-65
2022/07/03 13:02:50;;;;;;;1.08;0.73;;;;;;;;;;5031999;28;20202;-65
2022/07/03 13:05:22;;;;;;;1.55;1.00;;;;;;;;;;5025091;28;20230;-65
2022/07/03 13:07:51;;;;;;;2.25;0.85;;;;;;;;;;5027809;28;20210;-65
2022/07/03 13:10:21;;;;;;;1.60;1.00;;;;;;;;;;5017882;28;20209;-64
2022/07/03 13:12:56;;;;;;;1.25;0.70;;;;;;;;;;5011717;28;20226;-65
2022/07/03 13:15:25;;;;;;;2.95;1.60;;;;;;;;;;5016675;28;20280;-65
2022/07/03 13:17:56;;;;;;;4.22;3.17;;;;;;;;;;5028877;28;21601;-64
2022/07/03 13:20:25;;;;;;;1.38;0.85;;;;;;;;;;5026290;28;20203;-65
2022/07/03 13:22:54;;;;;;;0.70;0.70;;;;;;;;;;5011265;28;20205;-65
2022/07/03 13:25:22;;;;;;;0.85;0.75;;;;;;;;;;5021303;28;20325;-65
2022/07/03 13:27:50;;;;;;;0.80;0.80;;;;;;;;;;5006230;28;20206;-64
2022/07/03 13:30:20;;;;;;;0.95;0.80;;;;;;;;;;5010848;28;20206;-65
2022/07/03 13:32:48;;;;;;;0.95;0.70;;;;;;;;;;5030472;28;20225;-64
2022/07/03 13:35:16;;;;;;;2.78;0.70;;;;;;;;;;5005045;28;20241;-64
2022/07/03 13:37:44;;;;;;;0.90;0.90;;;;;;;;;;5017242;28;20217;-65
2022/07/03 13:40:11;;;;;;;0.50;0.50;;;;;;;;;;5004919;28;20214;-64
2022/07/03 13:42:42;;;;;;;1.75;0.80;;;;;;;;;;4997964;28;20214;-64
2022/07/03 13:45:10;;;;;;;1.02;0.77;;;;;;;;;;4996968;28;20226;-63
2022/07/03 13:47:37;;;;;;;2.55;0.82;;;;;;;;;;4998162;28;21238;-66
2022/07/03 13:50:05;;;;;;;3.55;1.10;;;;;;;;;;5007546;28;20359;-64
2022/07/03 13:52:32;;;;;;;1.35;0.70;;;;;;;;;;5016389;28;20233;-63
2022/07/03 13:54:59;;;;;;;;;;;;;;;;;;5034612;28;20037;-65
2022/07/03 13:57:27;;;;;;;1.20;0.60;;;;;;;;;;5025541;28;20380;-64
2022/07/03 13:59:54;;;;;;;1.02;0.70;;;;;;;;;;5004006;28;23327;-64
2022/07/03 14:02:22;;;;;;;0.73;0.73;;;;;;;;;;4997607;28;20297;-64
2022/07/03 14:04:50;;;;;;;0.60;0.60;;;;;;;;;;5007649;28;20235;-63
2022/07/03 14:07:23;;;;;;;2.15;0.60;;;;;;;;;;5002497;28;21256;-64
2022/07/03 14:09:51;;;;;;;2.45;1.70;;;;;;;;;;5024298;28;20202;-64
2022/07/03 14:12:18;;;;;;;0.75;0.73;;;;;;;;;;5009914;28;20210;-64
2022/07/03 14:14:46;;;;;;;0.98;0.77;;;;;;;;;;5003210;28;20307;-64
2022/07/03 14:17:14;;;;;;;1.80;0.70;;;;;;;;;;4994220;28;20672;-63
2022/07/03 14:19:42;;;;;;;0.80;0.80;;;;;;;;;;5031254;28;20852;-64
2022/07/03 14:22:10;;;;;;;0.52;0.52;;;;;;;;;;5034651;28;20206;-65
2022/07/03 14:24:38;;;;;;;3.22;0.93;;;;;;;;;;5027774;28;20260;-64
2022/07/03 14:32:40;;;;;;;2.63;2.05;;;;;;;;;;5008828;28;20226;-64
2022/07/03 14:35:08;;;;;;;0.82;0.77;;;;;;;;;;4996195;28;20351;-64
2022/07/03 14:37:35;;;;;;;1.13;1.02;;;;;;;;;;5018920;28;20210;-64
2022/07/03 14:40:12;;;;;;;5.05;2.10;;;;;;;;;;5005078;28;20214;-65
2022/07/03 14:42:46;;;;;;;0.57;0.57;;;;;;;;;;5026724;28;20305;-64
2022/07/03 14:45:14;;;;;;;0.85;0.60;;;;;;;;;;4996405;28;21269;-64
2022/07/03 14:47:41;;;;;;;1.27;0.90;;;;;;;;;;5001452;28;20206;-64
2022/07/03 14:50:09;;;;;;;1.00;0.93;;;;;;;;;;4994013;28;20210;-65
2022/07/03 14:52:39;;;;;;;3.70;2.00;;;;;;;;;;5011989;28;20244;-64
2022/07/03 14:55:08;;;;;;;9.68;5.57;;;;;;;;;;5025839;28;20230;-64
2022/07/03 14:57:37;;;;;;;2.03;0.90;;;;;;;;;;5020173;28;20301;-66
2022/07/03 15:00:06;;;;;;;0.75;0.75;;;;;;;;;;4995028;28;21225;-64
2022/07/03 15:02:44;;;;;;;1.15;0.77;;;;;;;;;;5016069;28;20255;-65
2022/07/03 15:05:13;;;;;;;2.63;0.80;;;;;;;;;;5020928;28;20326;-65
2022/07/03 15:07:41;;;;;;;1.33;1.30;;;;;;;;;;5002828;28;20276;-65
2022/07/03 15:10:10;;;;;;;1.58;1.08;;;;;;;;;;5008022;28;20209;-65
2022/07/03 15:12:41;;;;;;;2.53;0.70;;;;;;;;;;5014016;28;20234;-65
2022/07/03 15:15:13;;;;;;;0.88;0.70;;;;;;;;;;4991986;28;20225;-65
2022/07/03 15:17:42;;;;;;;1.52;0.80;;;;;;;;;;4983065;28;20206;-66
2022/07/03 15:20:12;;;;;;;0.95;0.88;;;;;;;;;;4994846;28;20205;-65